createdAt,value
2022-09-14T00:00:02.568Z,90.29
2022-09-14T00:01:24.373Z,90.89
2022-09-14T00:02:04.353Z,90.79
2022-09-14T00:03:03.627Z,91.39
2022-09-14T00:04:03.881Z,91.09
2022-09-14T00:05:04.121Z,91.30
2022-09-14T00:06:04.342Z,91.34
2022-09-14T00:07:04.669Z,91.14
2022-09-14T00:08:04.960Z,90.94
2022-09-14T00:09:05.271Z,91.14
2022-09-14T00:10:05.617Z,91.64
2022-09-14T00:11:05.820Z,91.14
2022-09-14T00:12:06.149Z,91.24
2022-09-14T00:13:06.478Z,91.03
2022-09-14T00:14:06.802Z,91.14
2022-09-14T00:15:07.151Z,91.03
2022-09-14T00:16:07.409Z,90.94
2022-09-14T00:17:07.780Z,90.73
2022-09-14T00:18:07.904Z,90.64
2022-09-14T00:19:08.223Z,91.64
2022-09-14T00:20:08.565Z,91.54
2022-09-14T00:21:08.901Z,90.99
2022-09-14T00:22:09.250Z,91.54
2022-09-14T00:23:09.448Z,91.24
2022-09-14T00:24:09.752Z,91.64
2022-09-14T00:25:10.095Z,91.64
2022-09-14T00:26:10.425Z,91.84
2022-09-14T00:27:10.773Z,91.44
2022-09-14T00:28:11.002Z,90.89
2022-09-14T00:29:11.351Z,91.09
2022-09-14T00:30:11.563Z,90.89
2022-09-14T00:31:11.912Z,90.89
2022-09-14T00:32:16.073Z,91.19
2022-09-14T00:33:12.520Z,90.79
2022-09-14T00:34:12.873Z,90.99
2022-09-14T00:35:13.091Z,91.09
2022-09-14T00:36:13.410Z,90.79
2022-09-14T00:37:13.729Z,90.99
2022-09-14T00:38:17.784Z,90.59
2022-09-14T00:39:14.311Z,90.59
2022-09-14T00:40:14.672Z,90.59
2022-09-14T00:41:14.756Z,90.69
2022-09-14T00:42:15.065Z,90.49
2022-09-14T00:43:15.374Z,90.79
2022-09-14T00:44:15.687Z,90.79
2022-09-14T00:45:16.016Z,90.69
2022-09-14T00:46:16.233Z,90.39
2022-09-14T00:47:16.498Z,90.59
2022-09-14T00:48:20.561Z,90.59
2022-09-14T00:49:17.077Z,90.89
2022-09-14T00:50:17.806Z,90.99
2022-09-14T00:51:17.551Z,91.09
2022-09-14T00:52:17.873Z,91.09
2022-09-14T02:56:06.097Z,91.68
2022-09-14T02:57:06.355Z,91.78
2022-09-14T02:58:06.609Z,91.58
2022-09-14T02:59:06.892Z,92.18
2022-09-14T03:00:07.140Z,90.98
2022-09-14T03:01:07.549Z,92.38
2022-09-14T03:02:07.724Z,92.13
2022-09-14T03:03:07.970Z,90.22
2022-09-14T03:04:08.323Z,90.12
2022-09-14T03:05:08.547Z,90.28
2022-09-14T03:06:08.885Z,89.58
2022-09-14T03:07:09.149Z,90.17
2022-09-14T03:08:09.425Z,90.28
2022-09-14T03:09:09.676Z,90.37
2022-09-14T03:10:10.009Z,89.58
2022-09-14T03:11:10.228Z,89.63
2022-09-14T03:12:10.475Z,89.73
2022-09-14T03:13:10.693Z,90.13
2022-09-14T03:14:11.011Z,90.13
2022-09-14T03:15:11.336Z,89.94
2022-09-14T03:16:11.632Z,89.83
2022-09-14T03:17:11.893Z,90.44
2022-09-14T03:18:14.455Z,90.33
2022-09-14T03:19:12.465Z,90.33
2022-09-14T03:20:12.673Z,89.94
2022-09-14T03:21:13.016Z,89.73
2022-09-14T03:22:13.325Z,90.13
2022-09-14T03:23:13.699Z,90.03
2022-09-14T03:24:13.907Z,89.83
2022-09-14T03:25:14.220Z,89.73
2022-09-14T03:26:14.564Z,90.33
2022-09-14T03:27:14.893Z,90.33
2022-09-14T03:28:15.237Z,90.33
2022-09-14T03:29:15.446Z,90.44
2022-09-14T03:30:15.809Z,90.73
2022-09-14T03:31:16.058Z,91.24
2022-09-14T03:32:16.356Z,89.94
2022-09-14T03:33:16.600Z,90.73
2022-09-14T03:34:16.806Z,90.03
2022-09-14T03:35:17.129Z,89.53
2022-09-14T03:36:17.451Z,89.49
2022-09-14T03:37:17.813Z,89.39
2022-09-14T03:38:18.033Z,89.18
2022-09-14T03:39:18.353Z,89.18
2022-09-14T03:40:21.846Z,88.24
2022-09-14T03:41:18.997Z,88.04
2022-09-14T03:42:19.368Z,88.04
2022-09-14T03:43:19.585Z,88.24
2022-09-14T03:44:19.918Z,88.24
2022-09-14T03:45:20.270Z,88.34
2022-09-14T03:46:20.736Z,88.84
2022-09-14T03:47:20.885Z,88.44
2022-09-14T03:48:21.102Z,88.34
2022-09-14T03:49:21.317Z,88.44
2022-09-14T03:50:21.641Z,88.34
2022-09-14T03:51:21.855Z,88.54
2022-09-14T03:52:22.200Z,88.14
2022-09-14T03:53:22.419Z,88.30
2022-09-14T03:54:22.728Z,88.40
2022-09-14T03:55:23.081Z,89.11
2022-09-14T03:56:23.406Z,89.14
2022-09-14T03:57:23.764Z,89.04
2022-09-14T03:58:23.987Z,89.45
2022-09-14T03:59:24.347Z,89.65
2022-09-14T04:00:24.570Z,89.70
2022-09-14T04:01:24.831Z,89.50
2022-09-14T04:02:25.126Z,89.61
2022-09-14T04:03:25.390Z,89.30
2022-09-14T04:04:25.622Z,88.00
2022-09-14T04:05:25.841Z,86.96
2022-09-14T04:06:26.193Z,87.16
2022-09-14T04:07:26.549Z,86.46
2022-09-14T04:08:26.756Z,85.96
2022-09-14T04:09:27.055Z,85.41
2022-09-14T04:10:27.369Z,84.81
2022-09-14T04:11:27.727Z,84.21
2022-09-14T04:12:27.935Z,83.87
2022-09-14T04:13:28.265Z,83.67
2022-09-14T04:14:28.590Z,83.67
2022-09-14T04:15:28.937Z,83.97
2022-09-14T04:16:29.216Z,83.37
2022-09-14T04:17:29.489Z,83.07
2022-09-14T04:18:29.798Z,83.37
2022-09-14T04:19:30.151Z,83.37
2022-09-14T04:20:30.361Z,83.27
2022-09-14T04:21:30.698Z,83.57
2022-09-14T04:22:31.032Z,83.73
2022-09-14T04:23:31.357Z,83.67
2022-09-14T04:24:31.711Z,83.77
2022-09-14T04:25:31.943Z,83.57
2022-09-14T04:26:32.241Z,83.77
2022-09-14T04:27:32.571Z,83.67
2022-09-14T04:28:32.888Z,84.07
2022-09-14T04:29:33.240Z,84.07
2022-09-14T04:30:33.444Z,84.27
2022-09-14T04:31:33.874Z,84.47
2022-09-14T04:32:34.667Z,84.47
2022-09-14T04:33:34.384Z,84.37
2022-09-14T04:34:34.761Z,84.87
2022-09-14T04:35:34.979Z,84.97
2022-09-14T04:36:35.302Z,85.07
2022-09-14T04:37:35.641Z,84.87
2022-09-14T04:38:35.982Z,84.81
2022-09-14T04:39:36.243Z,84.91
2022-09-14T04:40:36.451Z,84.71
2022-09-14T04:41:36.796Z,84.51
2022-09-14T04:42:37.007Z,84.51
2022-09-14T04:43:37.347Z,84.41
2022-09-14T04:44:37.716Z,84.17
2022-09-14T04:45:37.929Z,83.97
2022-09-14T04:46:42.249Z,84.07
2022-09-14T04:47:39.580Z,83.77
2022-09-14T04:48:38.855Z,83.47
2022-09-14T04:49:39.211Z,83.37
2022-09-14T04:50:39.437Z,83.27
2022-09-14T04:51:39.644Z,83.47
2022-09-14T04:52:39.974Z,83.17
2022-09-14T04:53:40.182Z,83.47
2022-09-14T04:54:40.504Z,83.27
2022-09-14T04:55:40.840Z,83.17
2022-09-14T04:56:41.164Z,82.87
2022-09-14T04:57:41.511Z,82.97
2022-09-14T04:58:41.730Z,82.67
2022-09-14T04:59:42.060Z,82.47
2022-09-14T05:00:42.281Z,82.87
2022-09-14T05:01:42.638Z,82.87
2022-09-14T05:02:42.934Z,82.67
2022-09-14T05:03:43.207Z,83.07
2022-09-14T05:04:43.461Z,82.87
2022-09-14T05:05:44.912Z,82.87
2022-09-14T05:06:43.996Z,83.47
2022-09-14T05:07:44.351Z,83.27
2022-09-14T05:08:44.559Z,83.27
2022-09-14T05:09:44.863Z,83.57
2022-09-14T05:10:45.177Z,83.77
2022-09-14T05:11:45.508Z,84.11
2022-09-14T05:12:45.874Z,83.91
2022-09-14T05:13:49.732Z,84.01
2022-09-14T05:14:46.366Z,84.21
2022-09-14T05:15:46.661Z,84.41
2022-09-14T05:16:46.901Z,84.41
2022-09-14T05:17:47.245Z,84.21
2022-09-14T05:18:47.643Z,84.71
2022-09-14T05:19:47.915Z,84.81
2022-09-14T05:20:48.122Z,85.01
2022-09-14T05:21:48.444Z,85.01
2022-09-14T05:22:48.763Z,84.91
2022-09-14T05:23:49.082Z,85.11
2022-09-14T05:24:49.446Z,85.35
2022-09-14T05:25:49.680Z,85.35
2022-09-14T05:26:50.003Z,85.75
2022-09-14T05:27:50.328Z,85.85
2022-09-14T05:28:50.656Z,85.75
2022-09-14T05:29:51.004Z,86.25
2022-09-14T05:30:51.252Z,86.16
2022-09-14T05:31:51.461Z,85.96
2022-09-14T05:32:55.262Z,86.05
2022-09-14T05:33:53.172Z,86.35
2022-09-14T05:34:52.363Z,86.46
2022-09-14T05:35:52.575Z,86.46
2022-09-14T05:36:52.912Z,86.66
2022-09-14T05:37:53.264Z,86.46
2022-09-14T05:38:53.468Z,86.40
2022-09-14T05:39:53.851Z,86.80
2022-09-14T05:40:54.119Z,87.10
2022-09-14T05:41:54.370Z,86.80
2022-09-14T05:42:54.553Z,87.00
2022-09-14T05:43:54.852Z,86.80
2022-09-14T05:44:55.161Z,86.90
2022-09-14T05:45:55.573Z,87.00
2022-09-14T05:46:55.813Z,86.60
2022-09-14T05:47:56.022Z,86.50
2022-09-14T05:48:56.359Z,86.40
2022-09-14T05:49:56.678Z,86.69
2022-09-14T05:50:56.994Z,86.69
2022-09-14T05:51:57.321Z,86.69
2022-09-14T05:52:57.642Z,86.90
2022-09-14T05:53:57.877Z,87.30
2022-09-14T05:54:58.117Z,87.20
2022-09-14T05:55:58.318Z,86.80
2022-09-14T05:56:58.629Z,87.20
2022-09-14T05:57:58.947Z,87.00
2022-09-14T05:58:59.274Z,87.20
2022-09-14T05:59:59.639Z,87.60
2022-09-14T06:00:59.852Z,87.30
2022-09-14T06:02:00.296Z,87.50
2022-09-14T06:03:00.519Z,87.20
2022-09-14T06:04:00.838Z,87.50
2022-09-14T06:05:01.207Z,87.30
2022-09-14T06:06:01.460Z,88.00
2022-09-14T06:07:17.979Z,87.60
2022-09-14T06:08:02.901Z,88.60
2022-09-14T06:09:02.164Z,87.80
2022-09-14T06:10:02.489Z,86.96
2022-09-14T06:11:02.829Z,87.26
2022-09-14T06:12:03.176Z,87.26
2022-09-14T06:13:03.390Z,87.66
2022-09-14T06:14:03.710Z,87.66
2022-09-14T06:15:04.030Z,86.96
2022-09-14T06:16:04.355Z,87.16
2022-09-14T06:17:04.623Z,86.85
2022-09-14T06:18:04.832Z,86.96
2022-09-14T06:19:05.165Z,86.96
2022-09-14T06:20:05.489Z,87.36
2022-09-14T06:21:05.818Z,87.26
2022-09-14T06:22:06.157Z,87.16
2022-09-14T06:23:06.355Z,87.66
2022-09-14T06:24:06.678Z,87.26
2022-09-14T06:25:06.891Z,86.96
2022-09-14T06:26:07.225Z,86.96
2022-09-14T06:27:07.585Z,87.05
2022-09-14T06:28:07.829Z,87.36
2022-09-14T06:29:08.031Z,88.56
2022-09-14T06:30:08.369Z,88.16
2022-09-14T06:31:08.705Z,87.16
2022-09-14T06:32:09.022Z,87.46
2022-09-14T06:33:09.351Z,89.06
2022-09-14T06:34:09.553Z,87.76
2022-09-14T06:35:12.440Z,87.55
2022-09-14T06:36:10.220Z,88.26
2022-09-14T06:37:10.541Z,87.55
2022-09-14T06:38:14.608Z,88.06
2022-09-14T06:39:11.111Z,88.46
2022-09-14T06:40:11.468Z,87.66
2022-09-14T06:41:11.708Z,87.92
2022-09-14T06:42:12.063Z,87.52
2022-09-14T06:43:12.270Z,87.46
2022-09-14T06:44:12.629Z,87.66
2022-09-14T06:45:12.838Z,87.41
2022-09-14T06:46:13.171Z,87.32
2022-09-14T06:47:13.516Z,87.12
2022-09-14T06:48:13.844Z,86.82
2022-09-14T06:49:14.193Z,86.71
2022-09-14T06:50:14.435Z,87.21
2022-09-14T06:51:14.659Z,87.41
2022-09-14T06:52:14.993Z,87.92
2022-09-14T06:53:15.357Z,88.42
2022-09-14T06:54:15.593Z,87.12
2022-09-14T06:55:15.813Z,86.91
2022-09-14T06:56:16.133Z,86.71
2022-09-14T06:57:16.444Z,88.21
2022-09-14T06:58:16.774Z,87.12
2022-09-14T06:59:17.146Z,86.61
2022-09-14T07:00:17.351Z,87.02
2022-09-14T07:01:17.670Z,87.52
2022-09-14T07:02:18.016Z,87.57
2022-09-14T07:03:20.193Z,87.18
2022-09-14T07:04:18.647Z,88.28
2022-09-14T07:05:18.864Z,85.47
2022-09-14T07:06:19.171Z,86.57
2022-09-14T07:07:19.465Z,86.57
2022-09-14T07:08:19.828Z,86.27
2022-09-14T07:09:23.792Z,87.68
2022-09-14T07:10:20.296Z,87.13
2022-09-14T07:11:20.625Z,84.63
2022-09-14T07:12:20.964Z,85.73
2022-09-14T07:13:21.323Z,85.93
2022-09-14T07:14:21.531Z,87.03
2022-09-14T07:15:21.850Z,84.83
2022-09-14T07:16:22.153Z,84.83
2022-09-14T07:17:22.506Z,85.19
2022-09-14T07:18:22.732Z,84.99
2022-09-14T07:19:23.084Z,83.49
2022-09-14T07:20:23.388Z,83.99
2022-09-14T07:21:23.591Z,84.39
2022-09-14T07:22:23.908Z,85.29
2022-09-14T07:23:24.218Z,85.25
2022-09-14T07:24:24.556Z,84.95
2022-09-14T07:25:24.899Z,85.15
2022-09-14T07:26:25.149Z,85.35
2022-09-14T07:27:25.367Z,85.15
2022-09-14T07:28:26.457Z,85.45
2022-09-14T07:29:25.959Z,84.75
2022-09-14T07:30:26.314Z,84.35
2022-09-14T07:31:26.643Z,85.31
2022-09-14T07:32:26.863Z,81.81
2022-09-14T07:33:27.276Z,81.01
2022-09-14T07:34:27.431Z,80.71
2022-09-14T07:35:27.796Z,81.77
2022-09-14T07:36:30.503Z,81.67
2022-09-14T07:37:29.321Z,81.67
2022-09-14T07:38:48.549Z,78.78
2022-09-14T07:39:29.817Z,79.14
2022-09-14T07:40:29.126Z,79.24
2022-09-14T07:41:29.345Z,79.04
2022-09-14T07:42:30.431Z,78.44
2022-09-14T07:43:29.948Z,77.64
2022-09-14T07:44:30.181Z,77.64
2022-09-14T07:45:30.449Z,78.04
2022-09-14T07:46:30.696Z,78.24
2022-09-14T07:47:30.924Z,77.34
2022-09-14T07:48:31.232Z,78.54
2022-09-14T07:49:31.541Z,76.54
2022-09-14T07:50:31.861Z,78.64
2022-09-14T07:51:32.180Z,76.34
2022-09-14T07:52:36.702Z,76.84
2022-09-14T07:53:33.721Z,76.95
2022-09-14T07:54:32.993Z,78.34
2022-09-14T07:55:33.327Z,77.55
2022-09-14T07:56:33.656Z,79.14
2022-09-14T07:57:54.726Z,79.20
2022-09-14T07:58:35.176Z,77.31
2022-09-14T07:59:36.600Z,78.11
2022-09-14T08:00:34.676Z,77.11
2022-09-14T08:01:35.070Z,77.11
2022-09-14T08:02:35.350Z,75.91
2022-09-14T08:03:35.594Z,76.31
2022-09-14T08:04:35.842Z,76.91
2022-09-14T08:05:36.410Z,77.81
2022-09-14T08:06:36.413Z,77.11
2022-09-14T08:07:36.622Z,76.45
2022-09-14T08:08:36.941Z,77.34
2022-09-14T08:09:37.266Z,76.45
2022-09-14T08:10:37.619Z,77.94
2022-09-14T08:11:37.834Z,76.25
2022-09-14T08:12:38.141Z,75.05
2022-09-14T08:13:38.454Z,75.71
2022-09-14T08:14:38.769Z,76.21
2022-09-14T08:15:39.560Z,74.51
2022-09-14T08:16:39.492Z,75.01
2022-09-14T08:17:39.689Z,76.21
2022-09-14T08:18:40.033Z,75.31
2022-09-14T08:19:40.291Z,75.91
2022-09-14T08:20:40.599Z,74.48
2022-09-14T08:21:46.189Z,74.11
2022-09-14T08:22:42.221Z,75.78
2022-09-14T08:23:41.481Z,75.67
2022-09-14T08:24:41.820Z,75.37
2022-09-14T08:25:42.034Z,75.67
2022-09-14T08:26:42.340Z,76.67
2022-09-14T08:27:42.664Z,77.67
2022-09-14T08:28:43.081Z,77.13
2022-09-14T08:29:43.337Z,73.74
2022-09-14T08:30:43.546Z,73.74
2022-09-14T08:31:43.902Z,73.74
2022-09-14T08:32:44.113Z,75.24
2022-09-14T08:33:44.430Z,73.01
2022-09-14T08:34:44.789Z,72.91
2022-09-14T08:35:57.473Z,72.22
2022-09-14T08:36:46.285Z,72.02
2022-09-14T08:37:45.554Z,73.21
2022-09-14T08:38:45.874Z,72.02
2022-09-14T08:39:49.639Z,73.41
2022-09-14T08:40:47.515Z,73.61
2022-09-14T08:41:46.778Z,75.01
2022-09-14T08:42:47.124Z,73.91
2022-09-14T08:43:47.332Z,74.90
2022-09-14T08:44:47.654Z,75.10
2022-09-14T08:45:48.028Z,75.70
2022-09-14T08:46:48.423Z,76.30
2022-09-14T08:47:48.626Z,76.10
2022-09-14T08:48:48.985Z,75.60
2022-09-14T08:49:49.193Z,75.80
2022-09-14T08:50:49.516Z,75.90
2022-09-14T08:51:49.826Z,75.10
2022-09-14T08:52:50.134Z,75.34
2022-09-14T08:53:50.462Z,76.30
2022-09-14T08:54:50.694Z,76.70
2022-09-14T08:55:50.999Z,76.00
2022-09-14T08:56:51.312Z,77.09
2022-09-14T08:57:51.627Z,76.30
2022-09-14T08:58:51.948Z,76.60
2022-09-14T08:59:52.302Z,76.30
2022-09-14T09:00:52.569Z,76.40
2022-09-14T09:01:52.801Z,76.90
2022-09-14T09:02:53.139Z,77.09
2022-09-14T09:03:53.526Z,77.13
2022-09-14T09:04:53.731Z,76.50
2022-09-14T09:05:54.050Z,77.29
2022-09-14T09:06:54.364Z,77.00
2022-09-14T09:07:54.701Z,77.20
2022-09-14T09:08:54.896Z,76.70
2022-09-14T09:09:55.249Z,77.43
2022-09-14T09:10:55.454Z,77.43
2022-09-14T09:11:55.770Z,77.93
2022-09-14T09:12:56.100Z,77.73
2022-09-14T09:13:56.384Z,76.93
2022-09-14T09:14:56.702Z,77.73
2022-09-14T09:15:57.041Z,78.03
2022-09-14T09:16:57.273Z,77.93
2022-09-14T09:17:57.466Z,78.43
2022-09-14T09:18:57.797Z,78.53
2022-09-14T09:19:58.117Z,78.73
2022-09-14T09:20:58.438Z,78.73
2022-09-14T09:21:58.808Z,78.83
2022-09-14T09:22:58.984Z,78.53
2022-09-14T09:23:59.283Z,78.92
2022-09-14T09:24:59.619Z,78.33
2022-09-14T09:25:59.814Z,78.53
2022-09-14T09:27:00.143Z,78.92
2022-09-14T09:28:00.456Z,78.83
2022-09-14T09:29:00.795Z,78.43
2022-09-14T09:30:00.992Z,78.23
2022-09-14T09:31:01.327Z,78.63
2022-09-14T09:32:01.601Z,78.56
2022-09-14T09:33:01.852Z,78.43
2022-09-14T09:34:02.076Z,78.83
2022-09-14T09:35:02.386Z,78.63
2022-09-14T09:36:02.703Z,78.63
2022-09-14T09:37:02.998Z,78.63
2022-09-14T09:38:03.336Z,77.93
2022-09-14T09:39:05.267Z,77.59
2022-09-14T09:40:03.885Z,77.80
2022-09-14T09:41:04.136Z,78.25
2022-09-14T09:42:04.450Z,77.76
2022-09-14T09:43:04.779Z,77.86
2022-09-14T09:44:04.976Z,77.56
2022-09-14T09:45:05.292Z,77.52
2022-09-14T09:46:05.649Z,77.52
2022-09-14T09:47:05.883Z,76.72
2022-09-14T09:48:06.130Z,76.53
2022-09-14T09:49:06.318Z,76.59
2022-09-14T09:50:06.664Z,74.99
2022-09-14T09:51:06.860Z,75.99
2022-09-14T09:52:07.168Z,76.29
2022-09-14T09:53:07.456Z,76.29
2022-09-14T09:54:07.760Z,76.89
2022-09-14T09:55:08.120Z,76.95
2022-09-14T09:56:08.325Z,76.25
2022-09-14T09:57:08.646Z,76.06
2022-09-14T09:58:08.979Z,75.76
2022-09-14T09:59:09.213Z,75.82
2022-09-14T10:00:09.411Z,75.12
2022-09-14T10:01:12.450Z,75.12
2022-09-14T10:02:10.113Z,75.42
2022-09-14T10:03:10.250Z,75.88
2022-09-14T10:04:10.540Z,74.89
2022-09-14T10:05:10.853Z,75.18
2022-09-14T10:06:11.207Z,74.99
2022-09-14T10:07:11.400Z,74.65
2022-09-14T10:08:11.849Z,73.86
2022-09-14T10:09:12.063Z,74.06
2022-09-14T10:10:12.271Z,74.91
2022-09-14T10:11:12.579Z,73.93
2022-09-14T10:12:12.908Z,73.33
2022-09-14T10:13:13.253Z,73.93
2022-09-14T10:14:13.458Z,72.24
2022-09-14T10:15:13.782Z,73.39
2022-09-14T10:16:14.157Z,72.70
2022-09-14T10:17:14.370Z,70.91
2022-09-14T10:18:15.217Z,71.11
2022-09-14T10:19:14.954Z,69.03
2022-09-14T10:20:15.260Z,70.25
2022-09-14T10:21:15.574Z,70.55
2022-09-14T10:22:17.547Z,69.62
2022-09-14T10:23:16.222Z,69.92
2022-09-14T10:24:16.409Z,68.83
2022-09-14T10:25:16.702Z,69.53
2022-09-14T10:26:17.012Z,68.33
2022-09-14T10:27:17.358Z,70.22
2022-09-14T10:28:17.603Z,69.32
2022-09-14T10:29:17.822Z,70.62
2022-09-14T10:30:18.146Z,71.41
2022-09-14T10:31:18.566Z,69.03
2022-09-14T10:32:18.772Z,70.02
2022-09-14T10:33:19.167Z,68.07
2022-09-14T10:34:19.416Z,69.46
2022-09-14T10:35:19.633Z,67.90
2022-09-14T10:36:19.825Z,69.59
2022-09-14T10:37:20.134Z,69.09
2022-09-14T10:38:20.454Z,69.69
2022-09-14T10:39:25.365Z,69.59
2022-09-14T10:40:22.158Z,69.39
2022-09-14T10:41:21.333Z,70.39
2022-09-14T10:42:21.623Z,70.78
2022-09-14T10:43:21.961Z,71.58
2022-09-14T10:44:22.270Z,71.67
2022-09-14T10:45:22.594Z,70.98
2022-09-14T10:46:22.941Z,70.88
2022-09-14T10:47:23.155Z,70.55
2022-09-14T10:48:23.444Z,71.94
2022-09-14T10:49:23.727Z,70.65
2022-09-14T10:50:24.062Z,70.65
2022-09-14T10:51:24.395Z,69.39
2022-09-14T10:52:24.578Z,70.42
2022-09-14T10:53:24.865Z,71.11
2022-09-14T10:54:25.171Z,71.55
2022-09-14T10:55:25.503Z,70.85
2022-09-14T10:56:25.823Z,71.34
2022-09-14T10:57:26.176Z,71.18
2022-09-14T10:58:26.353Z,72.28
2022-09-14T10:59:26.655Z,71.68
2022-09-14T11:00:26.950Z,71.88
2022-09-14T11:01:27.401Z,72.38
2022-09-14T11:02:27.680Z,71.91
2022-09-14T11:03:27.736Z,72.71
2022-09-14T11:04:28.055Z,72.81
2022-09-14T11:05:28.360Z,72.81
2022-09-14T11:06:28.717Z,71.91
2022-09-14T11:07:28.915Z,72.91
2022-09-14T11:08:29.229Z,72.41
2022-09-14T11:09:29.533Z,72.81
2022-09-14T11:10:29.868Z,73.11
2022-09-14T11:11:30.048Z,71.61
2022-09-14T11:12:30.373Z,71.72
2022-09-14T11:13:30.675Z,72.11
2022-09-14T11:14:31.005Z,72.11
2022-09-14T11:15:31.427Z,71.31
2022-09-14T11:16:31.678Z,72.31
2022-09-14T11:17:31.976Z,72.11
2022-09-14T11:18:32.284Z,72.81
2022-09-14T11:19:32.578Z,73.00
2022-09-14T11:20:32.882Z,72.61
2022-09-14T11:21:33.220Z,72.71
2022-09-14T11:22:33.539Z,73.50
2022-09-14T11:23:33.843Z,73.41
2022-09-14T11:24:34.183Z,74.00
2022-09-14T11:25:34.495Z,74.04
2022-09-14T11:26:37.183Z,74.43
2022-09-14T11:27:35.153Z,72.94
2022-09-14T11:28:35.471Z,73.04
2022-09-14T11:29:35.776Z,72.64
2022-09-14T11:30:36.095Z,72.34
2022-09-14T11:31:36.465Z,73.14
2022-09-14T11:32:36.722Z,73.04
2022-09-14T11:33:36.905Z,73.34
2022-09-14T11:34:37.229Z,73.74
2022-09-14T11:35:37.532Z,73.18
2022-09-14T11:36:37.845Z,73.47
2022-09-14T11:37:38.199Z,73.77
2022-09-14T11:38:38.412Z,73.47
2022-09-14T11:39:38.720Z,73.77
2022-09-14T11:40:39.029Z,75.20
2022-09-14T11:41:39.338Z,74.87
2022-09-14T11:42:39.666Z,74.77
2022-09-14T11:43:39.898Z,75.16
2022-09-14T11:44:40.233Z,74.67
2022-09-14T11:45:40.532Z,74.17
2022-09-14T11:46:40.910Z,74.17
2022-09-14T11:47:41.134Z,74.67
2022-09-14T11:48:43.152Z,74.13
2022-09-14T11:49:41.673Z,74.63
2022-09-14T11:50:42.030Z,74.13
2022-09-14T11:51:42.213Z,72.64
2022-09-14T11:52:42.513Z,73.94
2022-09-14T11:53:42.822Z,74.33
2022-09-14T11:54:46.697Z,74.24
2022-09-14T11:55:43.401Z,74.00
2022-09-14T11:56:43.600Z,74.40
2022-09-14T11:57:43.942Z,72.91
2022-09-14T11:58:44.136Z,73.41
2022-09-14T11:59:44.491Z,71.81
2022-09-14T12:00:44.687Z,71.22
2022-09-14T12:01:45.006Z,70.52
2022-09-14T12:02:45.454Z,70.92
2022-09-14T12:03:49.750Z,71.12
2022-09-14T12:04:46.921Z,69.62
2022-09-14T12:05:46.180Z,70.32
2022-09-14T12:06:46.419Z,70.92
2022-09-14T12:07:46.790Z,70.52
2022-09-14T12:08:46.990Z,69.62
2022-09-14T12:09:47.347Z,70.12
2022-09-14T12:10:47.567Z,70.52
2022-09-14T12:11:47.876Z,70.03
2022-09-14T12:12:48.204Z,69.92
2022-09-14T12:13:48.583Z,69.13
2022-09-14T12:14:48.788Z,70.12
2022-09-14T12:15:49.142Z,69.53
2022-09-14T12:16:49.401Z,69.23
2022-09-14T12:17:49.606Z,69.82
2022-09-14T12:18:50.006Z,68.93
2022-09-14T12:19:50.249Z,69.13
2022-09-14T12:20:50.613Z,68.16
2022-09-14T12:21:50.796Z,69.26
2022-09-14T12:22:51.091Z,69.06
2022-09-14T12:23:51.431Z,69.56
2022-09-14T12:24:51.648Z,68.66
2022-09-14T12:25:51.997Z,69.85
2022-09-14T12:26:52.205Z,69.46
2022-09-14T12:27:52.522Z,68.37
2022-09-14T12:28:52.851Z,68.16
2022-09-14T12:29:53.159Z,68.16
2022-09-14T12:30:53.598Z,68.30
2022-09-14T12:31:53.751Z,67.70
2022-09-14T12:32:53.952Z,68.90
2022-09-14T12:33:54.279Z,69.39
2022-09-14T12:34:54.527Z,68.90
2022-09-14T12:35:54.829Z,69.49
2022-09-14T12:36:55.138Z,68.79
2022-09-14T12:37:55.493Z,68.50
2022-09-14T12:38:55.690Z,67.90
2022-09-14T12:39:56.087Z,68.90
2022-09-14T12:40:56.325Z,68.90
2022-09-14T12:41:56.613Z,68.30
2022-09-14T12:42:56.867Z,68.70
2022-09-14T12:43:57.091Z,68.79
2022-09-14T12:44:57.430Z,69.09
2022-09-14T12:45:57.708Z,69.39
2022-09-14T12:46:57.922Z,69.99
2022-09-14T12:47:58.237Z,70.09
2022-09-14T12:48:58.551Z,69.99
2022-09-14T12:49:58.918Z,70.68
2022-09-14T12:50:59.101Z,70.59
2022-09-14T12:51:59.385Z,70.39
2022-09-14T12:52:59.670Z,70.79
2022-09-14T12:54:00.031Z,71.09
2022-09-14T12:55:00.235Z,71.58
2022-09-14T12:56:00.534Z,71.58
2022-09-14T12:57:00.852Z,72.18
2022-09-14T12:58:01.171Z,72.38
2022-09-14T12:59:01.511Z,72.88
2022-09-14T13:00:01.709Z,72.78
2022-09-14T13:01:02.038Z,73.38
2022-09-14T13:02:02.428Z,73.87
2022-09-14T13:03:02.515Z,74.60
2022-09-14T13:04:02.856Z,75.46
2022-09-14T13:05:03.074Z,75.60
2022-09-14T13:06:03.409Z,76.30
2022-09-14T13:07:03.636Z,76.40
2022-09-14T13:08:03.850Z,76.26
2022-09-14T13:09:08.822Z,75.70
2022-09-14T13:10:05.488Z,75.90
2022-09-14T13:11:04.762Z,75.46
2022-09-14T13:12:04.978Z,75.16
2022-09-14T13:13:05.297Z,74.67
2022-09-14T13:14:05.627Z,74.67
2022-09-14T13:15:05.836Z,73.97
2022-09-14T13:16:06.336Z,74.17
2022-09-14T13:17:06.435Z,74.17
2022-09-14T13:18:06.710Z,74.41
2022-09-14T13:19:11.284Z,74.30
2022-09-14T13:20:08.341Z,74.80
2022-09-14T13:21:07.626Z,75.01
2022-09-14T13:22:07.833Z,74.80
2022-09-14T13:23:08.202Z,75.31
2022-09-14T13:24:08.395Z,74.60
2022-09-14T13:25:08.746Z,74.41
2022-09-14T13:26:09.062Z,75.20
2022-09-14T13:27:09.371Z,74.30
2022-09-14T13:28:09.675Z,74.51
2022-09-14T13:29:09.988Z,75.01
2022-09-14T13:30:12.112Z,74.24
2022-09-14T13:31:10.587Z,74.04
2022-09-14T13:32:10.788Z,74.74
2022-09-14T13:33:11.112Z,74.74
2022-09-14T13:34:11.434Z,75.04
2022-09-14T13:35:11.767Z,75.34
2022-09-14T13:36:11.959Z,75.84
2022-09-14T13:37:12.292Z,75.24
2022-09-14T13:38:12.639Z,75.07
2022-09-14T13:39:12.844Z,75.18
2022-09-14T13:40:13.187Z,75.07
2022-09-14T13:41:13.414Z,75.18
2022-09-14T13:42:13.722Z,75.48
2022-09-14T13:43:14.062Z,75.97
2022-09-14T13:44:14.262Z,75.78
2022-09-14T13:45:14.578Z,75.78
2022-09-14T13:46:19.697Z,76.07
2022-09-14T13:47:16.234Z,77.40
2022-09-14T13:48:15.480Z,76.51
2022-09-14T13:49:15.803Z,76.51
2022-09-14T13:50:16.096Z,77.11
2022-09-14T13:51:16.380Z,76.81
2022-09-14T13:52:16.693Z,76.31
2022-09-14T13:53:17.078Z,76.71
2022-09-14T13:54:17.262Z,76.61
2022-09-14T13:55:17.564Z,74.81
2022-09-14T13:56:17.912Z,74.51
2022-09-14T13:57:18.158Z,74.62
2022-09-14T13:58:18.465Z,74.62
2022-09-14T13:59:18.809Z,75.71
2022-09-14T14:00:19.138Z,76.71
2022-09-14T14:01:19.557Z,77.14
2022-09-14T14:02:19.828Z,76.54
2022-09-14T14:03:20.042Z,75.85
2022-09-14T14:04:20.282Z,75.95
2022-09-14T14:05:20.600Z,75.25
2022-09-14T14:06:20.913Z,75.45
2022-09-14T14:07:21.259Z,75.65
2022-09-14T14:08:21.567Z,75.25
2022-09-14T14:09:21.890Z,75.35
2022-09-14T14:10:22.204Z,76.15
2022-09-14T14:11:22.578Z,75.85
2022-09-14T14:12:22.775Z,74.49
2022-09-14T14:13:23.099Z,74.98
2022-09-14T14:14:25.586Z,75.38
2022-09-14T14:15:24.720Z,75.78
2022-09-14T14:16:24.087Z,75.89
2022-09-14T14:17:24.220Z,76.68
2022-09-14T14:18:24.538Z,76.88
2022-09-14T14:19:24.885Z,77.18
2022-09-14T14:20:25.069Z,78.68
2022-09-14T14:21:25.376Z,79.72
2022-09-14T14:22:25.710Z,82.61
2022-09-14T14:23:26.014Z,81.41
2022-09-14T14:24:26.373Z,83.65
2022-09-14T14:25:26.560Z,86.05
2022-09-14T14:26:26.892Z,86.59
2022-09-14T14:27:27.238Z,84.93
2022-09-14T14:28:27.560Z,87.43
2022-09-14T14:29:27.871Z,86.73
2022-09-14T14:30:28.205Z,85.93
2022-09-14T14:31:28.624Z,86.63
2022-09-14T14:32:28.869Z,85.17
2022-09-14T14:33:29.065Z,85.97
2022-09-14T14:34:29.389Z,86.77
2022-09-14T14:35:29.697Z,86.23
2022-09-14T14:36:30.032Z,86.43
2022-09-14T14:37:30.330Z,85.73
2022-09-14T14:38:30.649Z,85.43
2022-09-14T14:39:31.009Z,84.63
2022-09-14T14:40:31.305Z,85.23
2022-09-14T14:41:31.483Z,84.33
2022-09-14T14:42:31.808Z,84.29
2022-09-14T14:43:32.122Z,84.09
2022-09-14T14:44:32.416Z,84.19
2022-09-14T14:45:36.169Z,84.79
2022-09-14T14:46:36.822Z,84.09
2022-09-14T14:47:33.280Z,83.29
2022-09-14T14:48:33.498Z,82.99
2022-09-14T14:49:33.821Z,83.29
2022-09-14T14:50:34.136Z,83.85
2022-09-14T14:51:34.349Z,83.95
2022-09-14T14:52:34.697Z,83.55
2022-09-14T14:53:35.030Z,82.61
2022-09-14T14:54:35.360Z,83.31
2022-09-14T14:55:35.680Z,81.57
2022-09-14T14:56:39.794Z,82.17
2022-09-14T14:57:36.296Z,79.10
2022-09-14T14:58:36.619Z,76.30